Time;durP1;ratioP1;P1;durP2;ratioP2;P2;SDS_P1;SDS_P2;PMS_P1;PMS_P2;Temp;Humidity;BMP_temperature;BMP_pressure;BME280_temperature;BME280_humidity;BME280_pressure;Samples;Min_cycle;Max_cycle;Signal;HPM_P1;HPM_P2
2021/06/05 00:02:16;;;;;;;13.30;11.90;;;;;;;19.53;75.07;101213.50;4980231;28;20160;-83
2021/06/05 00:04:44;;;;;;;14.82;13.43;;;;;;;19.50;75.12;101211.81;5016488;28;20045;-83
2021/06/05 00:07:12;;;;;;;15.65;12.95;;;;;;;19.50;75.02;101211.81;4985095;28;20069;-87
2021/06/05 00:09:42;;;;;;;14.48;13.05;;;;;;;19.47;74.92;101212.81;4981284;28;20053;-84
2021/06/05 00:12:13;;;;;;;12.80;11.60;;;;;;;19.46;74.92;101207.56;4998585;28;20053;-85
2021/06/05 00:14:42;;;;;;;14.02;11.73;;;;;;;19.43;74.86;101213.84;5012166;28;20080;-83
2021/06/05 00:17:14;;;;;;;14.30;13.10;;;;;;;19.40;74.94;101208.66;5014865;28;20050;-84
2021/06/05 00:19:49;;;;;;;15.70;14.00;;;;;;;19.38;74.99;101207.84;4998781;28;20157;-82
2021/06/05 00:22:15;;;;;;;16.13;14.65;;;;;;;19.37;75.04;101213.22;5043116;28;20218;-83
2021/06/05 00:24:44;;;;;;;13.18;11.98;;;;;;;19.35;75.04;101213.28;5029942;28;20060;-83
2021/06/05 00:27:11;;;;;;;15.43;14.13;;;;;;;19.33;74.85;101207.13;5015240;28;20048;-84
2021/06/05 00:29:37;;;;;;;14.43;13.00;;;;;;;19.31;75.05;101206.34;5014477;28;20053;-87
2021/06/05 00:32:04;;;;;;;13.30;11.95;;;;;;;19.28;75.20;101211.75;5016780;28;20141;-83
2021/06/05 00:34:33;;;;;;;13.15;11.98;;;;;;;19.26;75.41;101203.84;5023427;28;20408;-86
2021/06/05 00:37:02;;;;;;;14.57;13.18;;;;;;;19.23;75.37;101203.97;4998934;28;20046;-85
2021/06/05 00:39:28;;;;;;;15.10;13.70;;;;;;;19.22;75.92;101210.19;5013593;28;20049;-82
2021/06/05 00:41:55;;;;;;;14.18;13.00;;;;;;;19.18;76.38;101213.88;5015126;28;20559;-82
2021/06/05 00:44:22;;;;;;;13.23;12.00;;;;;;;19.15;76.23;101212.22;4996926;28;20063;-82
2021/06/05 00:46:51;;;;;;;13.90;12.65;;;;;;;19.11;76.39;101207.94;5014318;28;20084;-84
2021/06/05 00:49:18;;;;;;;13.13;11.93;;;;;;;19.07;76.69;101208.94;5016485;28;20409;-83
2021/06/05 00:51:51;;;;;;;21.67;16.00;;;;;;;19.02;76.82;101210.91;4996872;28;20564;-85
2021/06/05 00:54:21;;;;;;;16.17;14.63;;;;;;;18.98;77.10;101201.31;5011912;28;20766;-83
2021/06/05 00:56:54;;;;;;;15.18;13.40;;;;;;;18.95;77.49;101201.44;5012660;28;20041;-85
2021/06/05 00:59:23;;;;;;;14.80;13.40;;;;;;;18.90;77.74;101201.56;4995805;28;20041;-83
2021/06/05 01:01:50;;;;;;;15.73;14.32;;;;;;;18.87;78.54;101203.47;5028796;28;20037;-82
2021/06/05 01:04:20;;;;;;;16.75;15.27;;;;;;;18.82;78.68;101195.66;5013614;28;20612;-82
2021/06/05 01:06:58;;;;;;;16.85;15.35;;;;;;;18.77;79.05;101192.28;5029242;28;20037;-82
2021/06/05 01:09:57;;;;;;;16.45;14.95;;;;;;;18.72;79.63;101187.16;5026455;28;20053;-83
2021/06/05 01:12:53;;;;;;;16.65;15.15;;;;;;;18.71;79.60;101189.84;5047184;28;20053;-84
2021/06/05 01:15:30;;;;;;;18.70;16.75;;;;;;;18.67;79.94;101191.75;5010931;28;20404;-83
2021/06/05 01:18:34;;;;;;;17.35;15.82;;;;;;;18.63;80.10;101198.06;5032880;28;20405;-82
2021/06/05 01:21:21;;;;;;;17.75;16.13;;;;;;;18.59;80.49;101194.66;5010306;28;20046;-83
2021/06/05 01:24:24;;;;;;;16.67;15.05;;;;;;;18.58;80.15;101194.72;5017664;28;21720;-86
2021/06/05 01:27:24;;;;;;;16.25;14.75;;;;;;;18.55;80.77;101187.75;5013834;28;20113;-84
2021/06/05 01:29:57;;;;;;;17.85;15.95;;;;;;;18.55;80.21;101189.50;5029968;28;20049;-84
2021/06/05 01:32:30;;;;;;;18.33;16.73;;;;;;;18.53;80.59;101178.97;5014467;28;20056;-82
2021/06/05 01:34:58;;;;;;;20.05;18.33;;;;;;;18.51;80.73;101181.66;5013092;28;20080;-86
2021/06/05 01:37:27;;;;;;;16.75;15.10;;;;;;;18.49;80.55;101183.50;5015335;28;20124;-83
2021/06/05 01:39:54;;;;;;;17.92;16.25;;;;;;;18.49;80.87;101180.00;5010948;28;20394;-80
2021/06/05 01:42:33;;;;;;;20.02;18.15;;;;;;;18.49;80.79;101183.50;5025728;28;20060;-82
2021/06/05 01:45:14;;;;;;;18.60;16.90;;;;;;;18.49;81.15;101187.94;5008253;28;20045;-83
2021/06/05 01:47:44;;;;;;;20.92;19.02;;;;;;;18.48;81.32;101187.06;4996754;28;20084;-83
2021/06/05 01:50:18;;;;;;;24.10;21.73;;;;;;;18.45;81.68;101183.66;5011896;28;20054;-83
2021/06/05 01:52:46;;;;;;;21.35;19.13;;;;;;;18.43;81.59;101188.13;5009124;28;20064;-84
2021/06/05 01:55:36;;;;;;;16.85;15.35;;;;;;;18.42;81.87;101187.28;5011984;28;20045;-82
2021/06/05 01:58:13;;;;;;;18.55;16.70;;;;;;;18.43;81.58;101182.84;5011864;28;20087;-81
2021/06/05 02:00:50;;;;;;;20.10;18.17;;;;;;;18.42;81.78;101181.97;4986493;28;20049;-81
2021/06/05 02:03:25;;;;;;;20.70;18.75;;;;;;;18.39;81.64;101174.13;5010964;28;20687;-82
2021/06/05 02:05:54;;;;;;;19.17;17.23;;;;;;;18.38;81.69;101175.03;5027786;28;20049;-82
2021/06/05 02:08:27;;;;;;;21.63;19.65;;;;;;;18.34;82.00;101174.28;5014015;28;20041;-87
2021/06/05 02:11:04;;;;;;;19.38;17.63;;;;;;;18.32;82.25;101176.09;4992553;28;20099;-81
2021/06/05 02:13:38;;;;;;;19.73;17.73;;;;;;;18.31;82.29;101176.16;5028140;28;20057;-84
2021/06/05 02:16:25;;;;;;;20.58;18.65;;;;;;;18.29;82.59;101175.34;5007001;28;20042;-82
2021/06/05 02:18:58;;;;;;;21.42;19.33;;;;;;;18.26;82.47;101167.50;4999103;28;20099;-84
2021/06/05 02:21:31;;;;;;;22.40;20.10;;;;;;;18.23;82.76;101163.16;5046661;28;20610;-84
2021/06/05 02:24:27;;;;;;;23.58;21.17;;;;;;;18.19;83.01;101165.03;5045911;28;20742;-82
2021/06/05 02:26:56;;;;;;;23.33;21.02;;;;;;;18.18;83.20;101162.44;5029852;28;20037;-87
2021/06/05 02:29:28;;;;;;;24.15;21.75;;;;;;;18.18;83.19;101167.75;5030673;28;20500;-85
2021/06/05 02:31:56;;;;;;;19.40;17.40;;;;;;;18.16;83.00;101159.84;5005743;28;20060;-87
2021/06/05 02:34:30;;;;;;;22.95;20.77;;;;;;;18.16;83.02;101162.50;5011813;28;20053;-83
2021/06/05 02:36:58;;;;;;;;;;;;;;;18.17;83.85;101163.34;5000749;28;20049;-84
2021/06/05 02:39:28;;;;;;;24.40;21.98;;;;;;;18.18;83.15;101163.28;5038909;28;19929;-86
2021/06/05 02:42:09;;;;;;;;;;;;;;;;;;;;;
2021/06/05 02:44:43;;;;;;;22.15;19.85;;;;;;;18.28;83.15;101155.06;5016907;28;20048;-83
2021/06/05 02:47:12;;;;;;;23.20;20.92;;;;;;;18.33;83.03;101158.44;5024738;28;20051;-82
2021/06/05 02:49:42;;;;;;;21.30;19.38;;;;;;;18.35;82.74;101149.53;5015275;28;20196;-82
2021/06/05 02:52:33;;;;;;;21.77;19.50;;;;;;;18.40;82.91;101161.75;5010673;28;20542;-82
2021/06/05 02:55:08;;;;;;;20.45;18.55;;;;;;;18.44;82.81;101156.28;5014004;28;20558;-83
2021/06/05 02:57:36;;;;;;;21.80;19.80;;;;;;;18.46;82.56;101164.16;4997033;28;20526;-83
2021/06/05 03:00:10;;;;;;;18.00;16.45;;;;;;;18.47;82.52;101158.84;5015107;28;20385;-85
2021/06/05 03:02:42;;;;;;;21.10;19.10;;;;;;;18.46;82.78;101161.50;5015874;28;20056;-83
2021/06/05 03:05:13;;;;;;;18.90;17.20;;;;;;;18.46;82.71;101159.75;5021089;28;20057;-82
2021/06/05 03:07:39;;;;;;;18.70;16.77;;;;;;;18.45;82.78;101162.47;4998011;28;20038;-82
2021/06/05 03:10:08;;;;;;;19.60;17.65;;;;;;;18.44;82.76;101158.91;5024557;28;20054;-85
2021/06/05 03:12:34;;;;;;;20.63;18.73;;;;;;;18.42;83.11;101158.13;5041397;28;20052;-83
2021/06/05 03:15:00;;;;;;;18.63;16.92;;;;;;;18.39;83.16;101155.56;5014505;28;20072;-82
2021/06/05 03:17:28;;;;;;;18.13;16.38;;;;;;;18.37;83.16;101144.16;5008809;28;20041;-83
2021/06/05 03:19:56;;;;;;;16.77;15.18;;;;;;;18.35;83.67;101154.81;5014347;28;20037;-83
2021/06/05 03:22:22;;;;;;;15.90;14.30;;;;;;;18.36;83.82;101155.69;5010862;28;20037;-82
2021/06/05 03:24:48;;;;;;;16.88;15.10;;;;;;;18.35;83.84;101162.78;5027436;28;20050;-86
2021/06/05 03:27:14;;;;;;;17.05;15.55;;;;;;;18.37;83.92;101159.19;5012369;28;20045;-83
2021/06/05 03:29:41;;;;;;;14.10;12.88;;;;;;;18.39;84.05;101155.56;5028030;28;20670;-85
2021/06/05 03:32:14;;;;;;;19.08;17.13;;;;;;;18.44;83.92;101160.72;5021011;28;20108;-82
2021/06/05 03:34:41;;;;;;;19.17;16.48;;;;;;;18.49;83.93;101162.28;4994460;28;20097;-83
2021/06/05 03:37:09;;;;;;;14.80;13.30;;;;;;;18.52;84.23;101166.63;5013764;28;20140;-83
2021/06/05 03:39:36;;;;;;;16.42;14.93;;;;;;;18.57;83.88;101163.81;5012394;28;21070;-83
2021/06/05 03:42:07;;;;;;;16.40;14.90;;;;;;;18.62;83.70;101164.53;5012494;28;20445;-86
2021/06/05 03:44:34;;;;;;;15.80;14.27;;;;;;;18.65;83.28;101153.81;5029164;28;20583;-84
2021/06/05 03:47:00;;;;;;;16.75;15.25;;;;;;;18.67;83.34;101160.78;5011682;28;20064;-86
2021/06/05 03:49:28;;;;;;;13.38;12.13;;;;;;;18.72;83.01;101155.34;5016486;28;20045;-84
2021/06/05 03:51:59;;;;;;;14.68;13.23;;;;;;;18.76;82.62;101154.31;5043397;28;20056;-82
2021/06/05 03:54:34;;;;;;;16.08;14.45;;;;;;;18.79;82.61;101150.69;5001042;28;20056;-82
2021/06/05 03:57:01;;;;;;;16.55;12.70;;;;;;;18.81;82.58;101155.00;5017864;28;20045;-86
2021/06/05 03:59:29;;;;;;;15.80;13.85;;;;;;;18.82;82.05;101154.06;4999854;28;20405;-84
2021/06/05 04:01:57;;;;;;;13.45;12.20;;;;;;;18.81;82.44;101157.66;5051823;28;20132;-86
2021/06/05 04:04:24;;;;;;;15.13;13.73;;;;;;;18.82;82.38;101153.22;5031720;28;20069;-83
2021/06/05 04:06:52;;;;;;;12.70;11.60;;;;;;;18.85;82.45;101150.44;5020533;28;20144;-87
2021/06/05 04:09:24;;;;;;;14.70;12.68;;;;;;;18.90;81.98;101158.28;5016096;28;20064;-86
2021/06/05 04:11:55;;;;;;;16.55;14.85;;;;;;;18.94;82.02;101154.59;5012723;28;20049;-86
2021/06/05 04:14:21;;;;;;;15.50;13.90;;;;;;;18.93;82.16;101147.53;4994104;28;20053;-83
2021/06/05 04:16:47;;;;;;;14.90;13.23;;;;;;;18.95;81.70;101151.03;4971775;28;20765;-85
2021/06/05 04:19:13;;;;;;;16.08;14.40;;;;;;;18.98;81.76;101154.44;4992706;28;20057;-82
2021/06/05 04:21:40;;;;;;;16.80;14.98;;;;;;;18.99;81.78;101153.53;4973404;28;20153;-85
2021/06/05 04:24:07;;;;;;;16.00;14.52;;;;;;;18.95;81.65;101161.63;4977938;28;20199;-86
2021/06/05 04:26:36;;;;;;;15.55;14.02;;;;;;;18.90;82.12;101152.97;4995566;28;20479;-82
2021/06/05 04:29:06;;;;;;;14.90;13.50;;;;;;;18.87;81.91;101151.25;4990065;28;20045;-83
2021/06/05 04:31:32;;;;;;;17.13;15.27;;;;;;;18.88;82.01;101157.44;5010748;28;20050;-84
2021/06/05 04:33:59;;;;;;;14.90;13.57;;;;;;;18.88;81.75;101154.78;4976471;28;20042;-84
2021/06/05 04:36:25;;;;;;;14.55;13.15;;;;;;;18.92;81.82;101145.84;4980005;28;20631;-85
2021/06/05 04:39:05;;;;;;;12.95;11.65;;;;;;;18.98;81.68;101157.09;4980194;28;20106;-83
2021/06/05 04:41:35;;;;;;;17.88;12.57;;;;;;;19.04;81.42;101152.50;4976746;28;20084;-82
2021/06/05 04:44:02;;;;;;;12.85;11.73;;;;;;;19.08;81.28;101148.78;4978361;28;20045;-83
2021/06/05 04:46:30;;;;;;;14.60;13.23;;;;;;;19.14;81.08;101157.41;4992070;28;20089;-82
2021/06/05 04:48:57;;;;;;;13.65;12.38;;;;;;;19.15;81.09;101155.59;4978316;28;20042;-82
2021/06/05 04:51:25;;;;;;;12.30;11.20;;;;;;;19.16;81.01;101152.91;4997896;28;20500;-83
2021/06/05 04:53:53;;;;;;;13.32;12.02;;;;;;;19.23;80.77;101152.66;4978226;28;20056;-83
2021/06/05 04:56:28;;;;;;;12.90;11.63;;;;;;;19.32;80.60;101154.97;5010265;28;20530;-82
2021/06/05 04:58:54;;;;;;;13.57;12.35;;;;;;;19.36;80.37;101153.06;4976045;28;20084;-86
2021/06/05 05:01:21;;;;;;;12.40;11.20;;;;;;;19.42;80.30;101158.16;4994822;28;20060;-82
2021/06/05 05:03:49;;;;;;;13.07;11.90;;;;;;;19.49;80.17;101152.56;4982589;28;20056;-82
2021/06/05 05:06:18;;;;;;;13.15;11.93;;;;;;;19.51;79.72;101166.63;4978884;28;20052;-85
2021/06/05 05:08:48;;;;;;;12.30;11.20;;;;;;;19.54;79.65;101167.44;4993992;28;20073;-85
2021/06/05 05:11:17;;;;;;;14.25;12.70;;;;;;;19.55;79.50;101167.38;5008416;28;20049;-84
2021/06/05 05:13:45;;;;;;;13.15;11.77;;;;;;;19.54;79.40;101170.94;5008480;28;20194;-82
2021/06/05 05:16:13;;;;;;;12.82;11.52;;;;;;;19.51;79.49;101169.28;5022457;28;20037;-83
2021/06/05 05:18:46;;;;;;;12.63;11.43;;;;;;;19.51;79.45;101163.09;5009442;28;20423;-83
2021/06/05 05:21:22;;;;;;;14.77;13.48;;;;;;;19.54;79.42;101157.66;5017261;28;20046;-81
2021/06/05 05:23:54;;;;;;;11.55;10.55;;;;;;;19.57;79.21;101159.34;4993664;28;20057;-85
2021/06/05 05:26:26;;;;;;;14.55;13.15;;;;;;;19.59;78.94;101168.13;5013428;28;20046;-83
2021/06/05 05:28:55;;;;;;;16.25;13.75;;;;;;;19.58;78.76;101161.97;5009419;28;20090;-83
2021/06/05 05:31:28;;;;;;;15.88;14.05;;;;;;;19.60;78.46;101160.09;5027869;28;20775;-84
2021/06/05 05:33:55;;;;;;;15.90;14.43;;;;;;;19.63;78.10;101161.75;5008016;28;20049;-85
2021/06/05 05:36:30;;;;;;;16.13;14.73;;;;;;;19.64;77.20;101168.81;5011006;28;20393;-82
2021/06/05 05:38:57;;;;;;;16.27;14.40;;;;;;;19.60;76.80;101162.75;5010916;28;20176;-86
2021/06/05 05:41:26;;;;;;;15.80;14.20;;;;;;;19.60;75.99;101172.53;5011808;28;20183;-83
2021/06/05 05:43:55;;;;;;;15.85;14.43;;;;;;;19.61;75.62;101171.59;4995778;28;20069;-82
2021/06/05 05:46:22;;;;;;;15.90;14.52;;;;;;;19.64;75.12;101169.66;5011000;28;20625;-85
2021/06/05 05:48:52;;;;;;;13.85;12.60;;;;;;;19.69;74.93;101171.31;5010840;28;20725;-81
2021/06/05 05:51:24;;;;;;;15.85;14.25;;;;;;;19.75;74.47;101171.94;5028360;28;20053;-83
2021/06/05 05:53:54;;;;;;;17.63;15.80;;;;;;;19.78;73.64;101168.28;5016078;28;20053;-84
2021/06/05 05:56:25;;;;;;;15.80;14.40;;;;;;;19.82;73.34;101168.13;5019910;28;20079;-81
2021/06/05 05:58:55;;;;;;;17.48;14.18;;;;;;;19.84;73.34;101170.72;5033456;28;20046;-84
2021/06/05 06:01:24;;;;;;;16.60;15.13;;;;;;;19.86;72.90;101168.03;5033638;28;20041;-81
2021/06/05 06:03:54;;;;;;;15.88;13.75;;;;;;;19.90;73.07;101164.31;5018369;28;20076;-86
2021/06/05 06:06:25;;;;;;;17.73;13.32;;;;;;;19.99;72.54;101169.25;5034997;28;20042;-82
2021/06/05 06:08:54;;;;;;;15.65;13.95;;;;;;;20.05;72.13;101173.44;5037558;28;20049;-86
2021/06/05 06:11:24;;;;;;;13.85;12.65;;;;;;;20.13;72.01;101169.56;5020575;28;20567;-82
2021/06/05 06:13:55;;;;;;;14.07;12.75;;;;;;;20.20;71.56;101178.13;5021074;28;20061;-87
2021/06/05 06:16:25;;;;;;;17.00;15.40;;;;;;;20.07;70.88;101171.59;5018341;28;20072;-83
2021/06/05 06:19:18;;;;;;;;;;;;;;;;;;;;;
2021/06/05 06:21:53;;;;;;;15.43;13.55;;;;;;;20.07;71.05;101167.13;5018260;28;20412;-83
2021/06/05 06:24:26;;;;;;;15.20;13.75;;;;;;;20.16;70.62;101168.56;5019477;28;20108;-85
2021/06/05 06:26:56;;;;;;;18.10;16.30;;;;;;;20.13;70.66;101172.22;5040530;28;20463;-83
2021/06/05 06:29:30;;;;;;;14.23;12.88;;;;;;;20.20;70.76;101169.31;5032701;28;20049;-83
2021/06/05 06:32:08;;;;;;;14.88;13.68;;;;;;;20.38;70.19;101168.53;5020875;28;20655;-81
2021/06/05 06:34:35;;;;;;;13.13;12.00;;;;;;;20.52;70.02;101175.06;5021984;28;20049;-83
2021/06/05 06:37:06;;;;;;;14.10;12.70;;;;;;;20.62;69.52;101171.97;5021236;28;20045;-82
2021/06/05 06:39:37;;;;;;;12.63;11.35;;;;;;;20.69;69.45;101179.66;5021340;28;20065;-84
2021/06/05 06:42:06;;;;;;;14.60;13.40;;;;;;;20.76;69.15;101179.38;5029459;28;20068;-86
2021/06/05 06:44:32;;;;;;;12.38;11.30;;;;;;;20.86;69.15;101185.16;5021536;28;20041;-82
2021/06/05 06:47:06;;;;;;;13.18;11.98;;;;;;;20.98;68.58;101184.63;4999662;28;20052;-84
2021/06/05 06:49:38;;;;;;;13.07;11.93;;;;;;;21.11;68.17;101189.41;5032375;28;20056;-82
2021/06/05 06:52:06;;;;;;;14.30;12.82;;;;;;;21.20;67.97;101186.34;5022519;28;20084;-81
2021/06/05 06:54:34;;;;;;;13.43;12.15;;;;;;;21.31;67.75;101199.16;5029161;28;20060;-82
2021/06/05 06:57:02;;;;;;;13.63;12.20;;;;;;;21.41;67.49;101188.97;5020264;28;20080;-82
2021/06/05 06:59:33;;;;;;;14.52;12.90;;;;;;;21.48;66.96;101193.03;5048750;28;20053;-81
2021/06/05 07:02:00;;;;;;;14.40;13.02;;;;;;;21.47;66.92;101193.97;5017882;28;20053;-82
2021/06/05 07:04:26;;;;;;;12.45;11.32;;;;;;;21.48;67.13;101199.25;4998796;28;20053;-85
2021/06/05 07:06:52;;;;;;;13.38;12.10;;;;;;;21.58;66.72;101201.53;5033882;28;20582;-82
2021/06/05 07:09:24;;;;;;;12.70;11.63;;;;;;;21.72;66.54;101199.06;5015417;28;20049;-86
2021/06/05 07:12:06;;;;;;;12.97;11.67;;;;;;;21.93;65.93;101194.53;5029753;28;20045;-84
2021/06/05 07:14:32;;;;;;;15.05;13.73;;;;;;;22.06;65.41;101194.78;4980504;28;20285;-83
2021/06/05 07:17:03;;;;;;;14.57;13.18;;;;;;;;;;4963276;28;20555;-85
2021/06/05 07:19:29;;;;;;;13.57;12.25;;;;;;;22.38;64.74;101189.69;5006932;28;20072;-83
2021/06/05 07:21:56;;;;;;;12.77;11.55;;;;;;;22.57;64.47;101189.63;4981825;28;20136;-85
2021/06/05 07:24:25;;;;;;;13.80;12.55;;;;;;;22.72;63.72;101181.78;4993862;28;20046;-84
2021/06/05 07:26:54;;;;;;;14.55;13.18;;;;;;;22.84;63.24;101185.63;4996299;28;20053;-85
2021/06/05 07:29:20;;;;;;;13.25;11.95;;;;;;;22.91;63.24;101179.88;4960443;28;20061;-85
2021/06/05 07:31:54;;;;;;;12.85;11.52;;;;;;;23.08;62.76;101181.66;4979928;28;20056;-85
2021/06/05 07:34:26;;;;;;;13.18;11.88;;;;;;;23.28;62.13;101183.31;4995516;28;20058;-82
2021/06/05 07:37:03;;;;;;;12.13;10.90;;;;;;;23.40;61.59;101183.56;4993894;28;20124;-82
2021/06/05 07:39:30;;;;;;;13.27;11.95;;;;;;;23.45;61.06;101185.06;4964195;28;20053;-85
2021/06/05 07:41:59;;;;;;;11.43;10.07;;;;;;;23.56;60.91;101184.47;4992824;28;20041;-81
2021/06/05 07:44:27;;;;;;;12.20;11.00;;;;;;;23.71;60.51;101190.75;5011322;28;20477;-87
2021/06/05 07:46:59;;;;;;;10.75;9.57;;;;;;;24.03;59.73;101193.47;4981080;28;20046;-82
2021/06/05 07:49:37;;;;;;;11.50;10.50;;;;;;;24.28;58.96;101194.72;4969578;28;20147;-84
2021/06/05 07:52:08;;;;;;;11.90;10.75;;;;;;;24.58;58.43;101202.75;4972760;28;20045;-84
2021/06/05 07:54:35;;;;;;;12.52;11.40;;;;;;;24.79;57.34;101205.13;4972528;28;20050;-84
2021/06/05 07:57:04;;;;;;;10.10;9.18;;;;;;;24.73;56.96;101200.13;4967719;28;20104;-83
2021/06/05 07:59:37;;;;;;;9.40;8.60;;;;;;;24.76;56.95;101198.16;4968481;28;20960;-83
2021/06/05 08:02:07;;;;;;;10.65;9.52;;;;;;;24.71;57.15;101194.88;4973237;28;20049;-82
2021/06/05 08:04:40;;;;;;;14.00;10.25;;;;;;;24.61;57.29;101207.06;4981004;28;20046;-85
2021/06/05 08:07:14;;;;;;;9.95;9.00;;;;;;;24.56;57.45;101203.78;5018009;28;20049;-85
2021/06/05 08:09:47;;;;;;;10.50;9.65;;;;;;;24.55;57.17;101202.09;4988785;28;20113;-83
2021/06/05 08:12:15;;;;;;;11.20;9.70;;;;;;;24.56;57.50;101198.44;4987229;28;20049;-83
2021/06/05 08:14:45;;;;;;;10.98;9.85;;;;;;;24.60;57.18;101199.97;5010468;28;20121;-82
2021/06/05 08:17:15;;;;;;;10.18;9.27;;;;;;;24.64;57.16;101198.91;5038991;28;20065;-85
2021/06/05 08:19:43;;;;;;;10.73;9.73;;;;;;;24.75;56.76;101195.56;5020706;28;20136;-85
2021/06/05 08:22:13;;;;;;;12.57;11.40;;;;;;;24.81;56.77;101200.56;5022343;28;20095;-84
2021/06/05 08:24:44;;;;;;;13.07;11.95;;;;;;;24.76;57.08;101200.81;5002860;28;20045;-86
2021/06/05 08:27:10;;;;;;;14.23;11.68;;;;;;;24.68;57.34;101196.88;5024838;28;20053;-83
2021/06/05 08:29:38;;;;;;;12.90;11.80;;;;;;;24.59;57.33;101198.28;4985343;28;20049;-86
2021/06/05 08:32:12;;;;;;;14.02;12.75;;;;;;;24.56;57.33;101193.97;5022802;28;20104;-84
2021/06/05 08:34:45;;;;;;;13.68;11.52;;;;;;;24.54;57.57;101200.38;5003584;28;20080;-84
2021/06/05 08:37:14;;;;;;;14.07;12.85;;;;;;;24.49;58.11;101199.78;4988668;28;20059;-83
2021/06/05 08:39:49;;;;;;;15.55;14.05;;;;;;;24.44;58.50;101197.34;4988009;28;20049;-87
2021/06/05 08:42:35;;;;;;;11.52;10.45;;;;;;;24.61;57.83;101197.22;5002193;28;20045;-86
2021/06/05 08:45:06;;;;;;;15.05;12.95;;;;;;;24.84;57.12;101202.19;5006292;28;20053;-82
2021/06/05 08:47:38;;;;;;;12.70;11.48;;;;;;;25.01;56.62;101202.00;5004135;28;20068;-84
2021/06/05 08:50:16;;;;;;;15.50;13.98;;;;;;;25.16;56.24;101197.53;5040073;28;20109;-82
2021/06/05 08:53:16;;;;;;;14.90;13.20;;;;;;;25.13;56.73;101196.88;4998913;28;20060;-85
2021/06/05 08:56:00;;;;;;;16.02;14.60;;;;;;;25.18;56.48;101202.81;5034939;28;20045;-83
2021/06/05 08:58:55;;;;;;;14.63;12.93;;;;;;;25.39;56.56;101214.03;4990195;28;20045;-85
2021/06/05 09:01:45;;;;;;;14.50;13.23;;;;;;;25.80;55.44;101213.22;5000847;28;20129;-85
2021/06/05 09:04:25;;;;;;;17.88;16.05;;;;;;;26.12;54.65;101207.59;4985104;28;20052;-86
2021/06/05 09:06:59;;;;;;;16.40;14.80;;;;;;;26.29;53.89;101211.84;5012497;28;20052;-87
2021/06/05 09:09:34;;;;;;;15.70;14.25;;;;;;;26.55;53.14;101220.81;5030075;28;20045;-82
2021/06/05 09:12:02;;;;;;;14.07;12.65;;;;;;;26.62;53.05;101217.72;4984377;28;20045;-87
2021/06/05 09:14:34;;;;;;;16.55;15.15;;;;;;;26.59;53.16;101213.44;4985295;28;20403;-84
2021/06/05 09:17:37;;;;;;;19.17;17.55;;;;;;;26.58;53.13;101217.94;5017547;28;20041;-85
2021/06/05 09:20:34;;;;;;;18.42;16.80;;;;;;;26.62;52.83;101217.72;4986984;28;20111;-86
2021/06/05 09:23:38;;;;;;;20.92;19.08;;;;;;;26.76;52.14;101219.53;5032564;28;20141;-85
2021/06/05 09:26:39;;;;;;;;;;;;;;;;;;;;;
2021/06/05 09:29:21;;;;;;;18.00;16.35;;;;;;;26.43;53.33;101208.25;5004709;28;20076;-84
2021/06/05 09:32:11;;;;;;;21.20;19.30;;;;;;;26.22;53.18;101215.91;4992936;28;20500;-83
2021/06/05 09:35:22;;;;;;;21.67;19.63;;;;;;;26.01;54.23;101210.97;5016663;28;20080;-84
2021/06/05 09:37:55;;;;;;;22.92;20.65;;;;;;;26.34;53.40;101206.19;4985141;28;20100;-84
2021/06/05 09:41:11;;;;;;;25.23;23.13;;;;;;;26.60;52.64;101209.78;4991705;28;20132;-84
2021/06/05 09:43:47;;;;;;;21.13;19.25;;;;;;;26.94;51.65;101215.56;5015470;28;20054;-88
2021/06/05 09:46:36;;;;;;;20.63;18.90;;;;;;;27.47;50.68;101203.84;5019298;28;20524;-81
2021/06/05 09:49:26;;;;;;;23.73;21.38;;;;;;;28.25;48.64;101212.53;5030459;28;20132;-85
2021/06/05 09:52:13;;;;;;;23.73;21.48;;;;;;;28.83;47.27;101205.44;5020093;28;20162;-87
2021/06/05 09:54:45;;;;;;;24.30;22.08;;;;;;;29.19;46.32;101198.13;5032345;28;20076;-83
2021/06/05 09:57:32;;;;;;;23.88;21.77;;;;;;;29.34;45.92;101200.63;5011550;28;20049;-87
2021/06/05 10:00:30;;;;;;;24.35;22.20;;;;;;;29.15;46.42;101204.75;5029997;28;20053;-84
2021/06/05 10:03:33;;;;;;;22.73;20.70;;;;;;;28.93;47.10;101202.00;5015275;28;20136;-86
2021/06/05 10:06:17;;;;;;;23.75;21.83;;;;;;;29.42;45.89;101200.00;4997081;28;20045;-87
2021/06/05 10:08:47;;;;;;;23.13;20.98;;;;;;;29.75;44.67;101195.53;5000535;28;20041;-83
2021/06/05 10:11:39;;;;;;;24.67;22.50;;;;;;;29.52;45.63;101193.72;5035266;28;20056;-86
2021/06/05 10:14:18;;;;;;;27.80;25.23;;;;;;;29.75;45.24;101182.03;5030599;28;20080;-86
2021/06/05 10:16:54;;;;;;;24.00;21.73;;;;;;;30.82;42.81;101182.09;4997919;28;20078;-86
2021/06/05 10:19:38;;;;;;;22.48;20.45;;;;;;;31.85;40.52;101180.31;4994905;28;20045;-87
2021/06/05 10:22:13;;;;;;;22.42;20.40;;;;;;;31.90;40.14;101188.84;5024748;28;20046;-85
2021/06/05 10:25:09;;;;;;;23.38;21.23;;;;;;;31.47;40.98;101182.75;4995682;28;20059;-84
2021/06/05 10:27:41;;;;;;;20.77;19.02;;;;;;;31.10;42.08;101183.28;5012770;28;20117;-86
2021/06/05 10:30:28;;;;;;;23.85;21.63;;;;;;;30.23;43.88;101189.78;5012232;28;20068;-83
2021/06/05 10:32:58;;;;;;;20.20;18.45;;;;;;;29.40;45.92;101191.16;4997139;28;20390;-87
2021/06/05 10:35:39;;;;;;;23.38;21.45;;;;;;;28.62;47.32;101194.44;5013795;28;20046;-85
2021/06/05 10:38:27;;;;;;;21.33;19.35;;;;;;;28.01;48.95;101198.06;4998122;28;20046;-86
2021/06/05 10:40:56;;;;;;;18.25;16.73;;;;;;;27.52;50.41;101201.66;5019533;28;20061;-86
2021/06/05 10:43:25;;;;;;;21.92;19.95;;;;;;;27.15;51.44;101199.75;5012871;28;20137;-82
2021/06/05 10:45:59;;;;;;;24.23;22.08;;;;;;;26.85;52.78;101200.09;4998937;28;20042;-85
2021/06/05 10:48:42;;;;;;;24.45;22.23;;;;;;;26.63;53.33;101196.13;5000627;28;20042;-87
2021/06/05 10:51:45;;;;;;;23.40;21.35;;;;;;;26.48;53.48;101194.50;4986487;28;20108;-87
2021/06/05 10:54:36;;;;;;;24.23;22.00;;;;;;;26.30;53.95;101204.69;5001146;28;20105;-86
2021/06/05 10:57:29;;;;;;;24.05;21.63;;;;;;;26.11;54.54;101197.81;4985567;28;20137;-85
2021/06/05 11:00:27;;;;;;;18.55;16.75;;;;;;;25.90;55.36;101190.22;4997978;28;20057;-82
2021/06/05 11:02:59;;;;;;;19.77;18.15;;;;;;;25.74;55.92;101197.53;4999094;28;20046;-84
2021/06/05 11:05:29;;;;;;;22.52;20.42;;;;;;;25.59;56.30;101197.56;4985330;28;20686;-84
2021/06/05 11:08:18;;;;;;;21.27;19.45;;;;;;;25.20;57.41;101198.19;5001223;28;20057;-83
2021/06/05 11:11:01;;;;;;;22.10;20.10;;;;;;;24.87;58.57;101205.53;5000686;28;20050;-85
2021/06/05 11:13:34;;;;;;;23.63;21.40;;;;;;;24.57;59.30;101194.81;5029295;28;20100;-86
2021/06/05 11:16:26;;;;;;;20.25;18.45;;;;;;;24.37;60.24;101191.50;5019275;28;20058;-88
2021/06/05 11:18:59;;;;;;;19.25;17.17;;;;;;;24.18;60.92;101188.19;5007449;28;20053;-84
2021/06/05 11:22:00;;;;;;;23.58;21.27;;;;;;;24.02;61.54;101207.78;5009229;28;20106;-85
2021/06/05 11:24:27;;;;;;;21.33;19.23;;;;;;;23.84;62.44;101200.78;5003200;28;20054;-85
2021/06/05 11:26:57;;;;;;;24.08;20.63;;;;;;;23.66;62.96;101214.19;5036561;28;20038;-83
2021/06/05 11:29:34;;;;;;;20.52;18.73;;;;;;;23.52;63.95;101214.97;4995823;28;20052;-87
2021/06/05 11:32:29;;;;;;;;;;;;;;;;;;;;;
2021/06/05 11:35:47;;;;;;;24.20;21.77;;;;;;;23.26;66.31;101224.41;5001962;28;20093;-85
2021/06/05 11:38:20;;;;;;;23.13;20.92;;;;;;;23.09;66.17;101218.09;5002093;28;20074;-84
2021/06/05 11:40:55;;;;;;;;;;;;;;;22.92;67.88;101221.66;5019033;28;20050;-85
2021/06/05 11:43:29;;;;;;;20.02;18.30;;;;;;;22.78;68.34;101218.84;5000352;28;20208;-87
2021/06/05 11:46:24;;;;;;;24.35;22.00;;;;;;;22.67;69.16;101219.41;5033630;28;20045;-84
2021/06/05 11:49:07;;;;;;;29.25;26.17;;;;;;;22.46;71.11;101224.88;5030714;28;20050;-87
2021/06/05 11:52:27;;;;;;;30.13;27.15;;;;;;;22.22;72.08;101221.56;5018053;28;20105;-86